Accueil
METAR-TAF:

METAR-TAF

Aéroports :

Pearson Field

Vancouver, Washington, États-Unis

latitude: 45-37-24N, longitude: 122-39-23W, altitude: 7 m

Observation

Le bulletin a été fait il y a 22 minutes, à 14:53 UTC
Vent 4 kt de nord-ouest
Température 14°C
Humidité 72%
Pression 1017 hPa
Visibilité: 16.1 km
Ciel couvert à une hauteur de 2100 ft

METAR: KVUO 201453Z AUTO 32004KT 10SM OVC021 14/09 A3004 RMK AO2 SLP173 T01390089 53011

Heure: 08:15 (15:15 UTC)


TAF: absent

Observations et prévisions météorologiques de plus de 4000 aéroports (messages METAR et TAF).

Les stations disponibles sont représentées par des disques jaunes et rouges sur la carte.

Passer la souris dessus pour voir le nom de la station.

Cliquer dessus pour voir les observations et prévisions météorologiques.

Pour changer de carte: cliquez sur les boutons verts avec une croix noire pour zoomer, sur le bouton vert avec un tiret pour effectuer un zoom arrière, ou sur les flèches vertes pour les cartes adjacentes.


METAR-TAF: